This is the latest recevied weather packets stored in our database for station/object OE6ACM-14. If no packets are shown the sender has not sent any weather packets the latest 10 day(s).
| Time | Temp. | Humidity | Pressure | Rain* | Wind** | Luminosity | Snow |
|---|---|---|---|---|---|---|---|
| 1787744178 | 29.44° C | 42% | 929.4 hPa | - | - | - | - |
| 1787743878 | 28.89° C | 42% | 929.4 hPa | - | - | - | - |
| 1787743578 | 28.89° C | 43% | 929.5 hPa | - | - | - | - |
| 1787743278 | 28.89° C | 41% | 929.5 hPa | - | - | - | - |
| 1787742978 | 30.56° C | 40% | 929.5 hPa | - | - | - | - |
| 1787742678 | 30° C | 41% | 929.6 hPa | - | - | - | - |
| 1787742378 | 29.44° C | 43% | 929.6 hPa | - | - | - | - |
| 1787742078 | 29.44° C | 43% | 929.6 hPa | - | - | - | - |
| 1787741778 | 28.89° C | 43% | 929.7 hPa | - | - | - | - |
| 1787741478 | 28.33° C | 44% | 929.7 hPa | - | - | - | - |
| 1787741178 | 28.33° C | 45% | 929.7 hPa | - | - | - | - |
| 1787740878 | 28.33° C | 43% | 929.7 hPa | - | - | - | - |
| 1787740578 | 28.33° C | 44% | 929.7 hPa | - | - | - | - |
| 1787740278 | 29.44° C | 42% | 929.6 hPa | - | - | - | - |
| 1787739978 | 28.89° C | 47% | 929.7 hPa | - | - | - | - |
| 1787739678 | 27.78° C | 48% | 929.8 hPa | - | - | - | - |
| 1787739378 | 26.67° C | 50% | 929.9 hPa | - | - | - | - |
| 1787739078 | 27.22° C | 48% | 929.9 hPa | - | - | - | - |
| 1787738778 | 26.67° C | 50% | 930 hPa | - | - | - | - |
| 1787738478 | 26.11° C | 48% | 930 hPa | - | - | - | - |
| 1787738178 | 27.22° C | 46% | 930 hPa | - | - | - | - |
| 1787737878 | 26.67° C | 48% | 930.1 hPa | - | - | - | - |
| 1787737578 | 27.78° C | 43% | 930.2 hPa | - | - | - | - |
| 1787737278 | 27.78° C | 45% | 930.3 hPa | - | - | - | - |
| 1787736978 | 28.33° C | 41% | 930.3 hPa | - | - | - | - |
* Rain since midnight (hover to see other rain measurements)
** Current wind speed in m/s (hover to see current wind gust speed)